Time;durP1;ratioP1;P1;durP2;ratioP2;P2;SDS_P1;SDS_P2;PMS_P1;PMS_P2;Temp;Humidity;BMP_temperature;BMP_pressure;BME280_temperature;BME280_humidity;BME280_pressure;Samples;Min_cycle;Max_cycle;Signal;HPM_P1;HPM_P2
2021/07/19 00:00:44;;;;;;;17.82;14.80;;;;;;;22.96;93.68;98699.03;1719173;82;21011;-66
2021/07/19 00:03:10;;;;;;;15.85;13.80;;;;;;;22.96;94.59;98697.70;1719274;83;20955;-66
2021/07/19 00:05:37;;;;;;;23.18;13.43;;;;;;;22.97;94.64;98697.21;1719281;82;20990;-66
2021/07/19 00:08:05;;;;;;;21.37;12.75;;;;;;;22.94;93.77;98693.55;1719231;83;21054;-65
2021/07/19 00:10:33;;;;;;;14.93;13.28;;;;;;;22.93;92.93;98697.19;1719214;83;21388;-66
2021/07/19 00:13:00;;;;;;;18.50;13.98;;;;;;;22.91;92.53;98700.50;1719239;83;20959;-66
2021/07/19 00:15:27;;;;;;;14.35;12.93;;;;;;;22.86;92.46;98698.81;1719346;83;21407;-66
2021/07/19 00:17:55;;;;;;;17.00;13.45;;;;;;;22.83;92.49;98697.31;1719548;83;20947;-66
2021/07/19 00:20:23;;;;;;;16.85;13.95;;;;;;;22.80;92.99;98699.44;1719177;83;20891;-66
2021/07/19 00:22:51;;;;;;;18.48;13.05;;;;;;;22.77;93.39;98696.64;1719455;82;20987;-66
2021/07/19 00:25:21;;;;;;;17.48;13.75;;;;;;;22.77;93.75;98697.10;1719166;83;20963;-66
2021/07/19 00:27:48;;;;;;;19.73;13.60;;;;;;;22.75;94.07;98689.31;1719497;83;22093;-66
2021/07/19 00:30:15;;;;;;;14.50;13.10;;;;;;;22.75;94.49;98688.48;1719191;82;20956;-66
2021/07/19 00:32:44;;;;;;;19.07;13.28;;;;;;;22.75;94.92;98685.83;1719296;82;20939;-66
2021/07/19 00:35:11;;;;;;;13.85;12.35;;;;;;;22.74;95.23;98685.00;1719089;83;20959;-66
2021/07/19 00:37:37;;;;;;;17.37;14.25;;;;;;;22.74;95.28;98688.14;1719161;83;20983;-66
2021/07/19 00:40:23;;;;;;;14.90;13.30;;;;;;;22.74;94.89;98687.64;1719216;83;20955;-66
2021/07/19 00:42:51;;;;;;;13.93;12.53;;;;;;;22.74;94.49;98686.32;1719167;83;20987;-65
2021/07/19 00:45:22;;;;;;;17.12;13.25;;;;;;;22.73;93.76;98683.83;1719153;83;21133;-65
2021/07/19 00:47:50;;;;;;;17.60;14.50;;;;;;;22.71;93.42;98681.83;1719365;83;20980;-65
2021/07/19 00:50:19;;;;;;;14.28;12.80;;;;;;;22.67;93.52;98683.47;1719093;82;20907;-65
2021/07/19 00:52:46;;;;;;;15.15;13.58;;;;;;;22.64;94.35;98683.78;1719138;83;21152;-65
2021/07/19 00:55:15;;;;;;;16.60;12.50;;;;;;;22.64;94.98;98687.75;1704676;83;21331;-65
2021/07/19 00:57:48;;;;;;;15.98;13.38;;;;;;;22.61;95.16;98693.37;1719427;82;21930;-65
2021/07/19 01:00:15;;;;;;;14.60;12.30;;;;;;;22.59;95.29;98698.00;1719330;83;21541;-65
2021/07/19 01:02:48;;;;;;;13.55;12.13;;;;;;;22.60;95.42;98701.47;1719159;83;20959;-66
2021/07/19 01:05:14;;;;;;;16.37;13.03;;;;;;;22.59;95.05;98700.64;1719231;83;21019;-65
2021/07/19 01:07:41;;;;;;;16.27;13.50;;;;;;;22.57;94.05;98698.67;1719207;83;21415;-65
2021/07/19 01:10:16;;;;;;;13.98;12.58;;;;;;;22.54;93.81;98701.64;1719134;83;21139;-65
2021/07/19 01:12:49;;;;;;;13.93;12.13;;;;;;;22.49;93.48;98703.92;1719465;83;20951;-65
2021/07/19 01:15:16;;;;;;;13.70;11.57;;;;;;;22.46;93.97;98701.58;1719251;83;20983;-65
2021/07/19 01:17:43;;;;;;;15.63;13.50;;;;;;;22.45;94.16;98701.73;1719360;83;21062;-65
2021/07/19 01:20:11;;;;;;;15.20;13.55;;;;;;;22.42;94.85;98703.37;1719325;82;20959;-65
2021/07/19 01:23:27;;;;;;;13.75;12.30;;;;;;;22.42;95.26;98704.70;1719202;83;21134;-65
2021/07/19 01:26:20;;;;;;;14.33;12.13;;;;;;;22.44;95.57;98710.18;1718991;83;21580;-65
2021/07/19 01:28:50;;;;;;;18.87;12.88;;;;;;;22.43;95.57;98703.70;1719539;83;28628;-65
2021/07/19 01:31:27;;;;;;;13.93;12.63;;;;;;;22.43;95.30;98703.70;1719156;82;21003;-65
2021/07/19 01:34:02;;;;;;;15.58;13.35;;;;;;;22.43;95.28;98706.36;1719480;82;20950;-65
2021/07/19 01:36:34;;;;;;;13.10;11.83;;;;;;;22.43;95.55;98697.08;1719126;83;21073;-65
2021/07/19 01:39:05;;;;;;;14.98;11.88;;;;;;;22.43;95.94;98696.59;1713678;83;20971;-65
2021/07/19 01:41:33;;;;;;;14.10;12.37;;;;;;;22.44;95.80;98690.80;1719462;82;20956;-65
2021/07/19 01:43:59;;;;;;;15.00;13.50;;;;;;;22.39;96.01;98695.23;1705077;83;20995;-65
2021/07/19 01:46:27;;;;;;;14.18;11.20;;;;;;;22.37;96.43;98693.76;1719134;83;21490;-65
2021/07/19 01:48:56;;;;;;;12.82;10.30;;;;;;;22.36;96.08;98699.55;1719319;83;22371;-65
2021/07/19 01:51:25;;;;;;;20.05;12.50;;;;;;;22.34;94.71;98694.90;1719036;83;21412;-65
2021/07/19 01:53:55;;;;;;;20.43;12.55;;;;;;;22.31;94.23;98690.74;1719200;83;20959;-65
2021/07/19 01:56:22;;;;;;;16.37;11.80;;;;;;;22.28;93.90;98692.87;1719173;83;20963;-65
2021/07/19 01:58:50;;;;;;;14.13;11.73;;;;;;;22.23;93.91;98686.70;1719357;83;20983;-65
2021/07/19 02:01:18;;;;;;;14.55;12.45;;;;;;;22.21;94.19;98689.17;1719272;82;21153;-65
2021/07/19 02:03:45;;;;;;;15.50;12.13;;;;;;;22.17;94.46;98678.08;1719518;82;21260;-65
2021/07/19 02:06:11;;;;;;;13.38;12.07;;;;;;;22.16;94.81;98682.20;1719383;83;20975;-65
2021/07/19 02:08:40;;;;;;;15.63;12.65;;;;;;;22.15;95.53;98678.73;1719294;83;20971;-65
2021/07/19 02:11:08;;;;;;;14.43;13.13;;;;;;;22.15;95.83;98684.02;1714616;83;21054;-65
2021/07/19 02:13:38;;;;;;;16.40;11.97;;;;;;;22.15;95.97;98682.70;1719471;83;21103;-65
2021/07/19 02:16:05;;;;;;;13.18;11.78;;;;;;;22.15;96.04;98683.20;1719445;83;21019;-65
2021/07/19 02:18:34;;;;;;;16.75;11.20;;;;;;;22.15;95.51;98686.67;1719369;83;20948;-66
2021/07/19 02:21:04;;;;;;;12.65;11.40;;;;;;;22.15;95.34;98690.64;1705216;83;20972;-65
2021/07/19 02:23:33;;;;;;;13.48;12.13;;;;;;;22.14;94.97;98690.80;1719310;83;21006;-65
2021/07/19 02:26:03;;;;;;;15.23;12.70;;;;;;;22.13;95.19;98693.11;1713997;83;21138;-65
2021/07/19 02:28:34;;;;;;;13.95;12.60;;;;;;;22.13;95.44;98697.08;1704774;83;21435;-65
2021/07/19 02:31:05;;;;;;;15.05;11.35;;;;;;;22.15;95.66;98697.77;1719601;82;20955;-65
2021/07/19 02:33:34;;;;;;;14.53;11.57;;;;;;;22.16;95.03;98694.95;1719339;83;21038;-65
2021/07/19 02:36:02;;;;;;;13.50;11.48;;;;;;;22.18;94.19;98700.10;1719334;83;20943;-65
2021/07/19 02:38:31;;;;;;;12.45;10.82;;;;;;;22.21;93.71;98701.09;1719302;83;21340;-65
2021/07/19 02:41:02;;;;;;;12.23;10.90;;;;;;;22.25;93.32;98703.77;1718964;83;20991;-65
2021/07/19 02:43:30;;;;;;;12.07;10.90;;;;;;;22.30;93.13;98708.95;1719461;83;20969;-66
2021/07/19 02:45:58;;;;;;;17.55;11.10;;;;;;;22.37;92.79;98702.54;1719301;83;21002;-66
2021/07/19 02:48:29;;;;;;;14.68;12.28;;;;;;;22.46;92.51;98703.40;1719340;83;21097;-65
2021/07/19 02:50:58;;;;;;;16.75;12.13;;;;;;;22.56;92.86;98698.34;1719337;82;21491;-66
2021/07/19 02:53:30;;;;;;;16.80;12.30;;;;;;;22.72;92.76;98701.55;1719156;83;21034;-66
2021/07/19 02:55:59;;;;;;;13.62;12.23;;;;;;;22.89;92.41;98707.28;1719864;82;21051;-66
2021/07/19 02:58:28;;;;;;;26.25;12.40;;;;;;;23.06;92.31;98700.20;1705145;83;20979;-66
2021/07/19 03:00:56;;;;;;;14.28;12.13;;;;;;;23.26;92.01;98709.55;1718815;82;21486;-66
2021/07/19 03:03:32;;;;;;;20.82;12.40;;;;;;;23.48;90.93;98707.27;1711064;84;21119;-67
2021/07/19 03:06:09;;;;;;;13.35;11.03;;;;;;;23.68;89.66;98711.30;1710974;83;21047;-66
2021/07/19 03:08:38;;;;;;;11.70;9.70;;;;;;;23.92;87.98;98714.47;1702995;84;20997;-65
2021/07/19 03:11:10;;;;;;;16.42;10.82;;;;;;;24.16;86.29;98710.47;1711556;83;21011;-66
2021/07/19 03:13:39;;;;;;;14.98;11.12;;;;;;;24.39;84.59;98709.27;1711140;83;37224;-66
2021/07/19 03:16:07;;;;;;;13.60;11.03;;;;;;;24.65;83.15;98717.85;1711167;82;21892;-66
2021/07/19 03:18:38;;;;;;;11.83;10.68;;;;;;;24.91;82.62;98713.61;1710975;84;21039;-66
2021/07/19 03:21:06;;;;;;;12.90;11.60;;;;;;;25.19;81.29;98709.16;1703094;84;21054;-66
2021/07/19 03:23:36;;;;;;;11.53;10.10;;;;;;;25.50;79.57;98710.48;1711197;84;21468;-66
2021/07/19 03:26:02;;;;;;;12.43;9.60;;;;;;;25.79;78.02;98717.77;1703187;84;20956;-66
2021/07/19 03:28:29;;;;;;;15.48;10.75;;;;;;;26.04;76.34;98717.41;1711212;83;21495;-66
2021/07/19 03:30:58;;;;;;;16.70;10.85;;;;;;;26.30;74.41;98714.36;1711013;83;20983;-66
2021/07/19 03:33:24;;;;;;;15.00;10.98;;;;;;;26.55;72.97;98722.12;1711084;83;21400;-66
2021/07/19 03:35:54;;;;;;;12.75;11.43;;;;;;;26.81;72.13;98714.96;1711015;84;20975;-66
2021/07/19 03:38:21;;;;;;;19.95;12.82;;;;;;;27.04;71.17;98715.20;1711066;84;20999;-66
2021/07/19 03:40:59;;;;;;;12.88;11.78;;;;;;;27.29;70.34;98718.38;1709049;83;21825;-66
2021/07/19 03:43:26;;;;;;;17.50;13.30;;;;;;;27.54;69.41;98719.36;1710933;84;21015;-66
2021/07/19 03:45:52;;;;;;;17.05;13.53;;;;;;;27.76;68.53;98716.54;1711065;84;20960;-66
2021/07/19 03:48:20;;;;;;;24.80;12.58;;;;;;;28.01;68.13;98716.11;1711018;84;21929;-67
2021/07/19 03:50:48;;;;;;;20.43;12.23;;;;;;;28.28;67.56;98709.99;1711174;83;21066;-67
2021/07/19 03:53:15;;;;;;;28.02;13.83;;;;;;;28.59;67.21;98718.09;1711040;84;21809;-66
2021/07/19 03:55:44;;;;;;;18.20;13.30;;;;;;;28.90;65.58;98713.16;1710932;84;20935;-66
2021/07/19 03:58:13;;;;;;;14.73;12.05;;;;;;;29.13;63.90;98711.00;1711054;82;20938;-66
2021/07/19 04:00:42;;;;;;;16.85;13.40;;;;;;;29.25;64.00;98712.58;1711096;84;21011;-66
2021/07/19 04:03:23;;;;;;;14.55;11.50;;;;;;;29.52;63.37;98714.02;1710929;83;20963;-66
2021/07/19 04:05:49;;;;;;;14.35;13.05;;;;;;;29.84;62.12;98721.27;1710858;83;21471;-66
2021/07/19 04:08:17;;;;;;;13.35;12.15;;;;;;;30.16;60.63;98719.68;1710930;83;20980;-66
2021/07/19 04:10:44;;;;;;;20.40;14.07;;;;;;;30.42;60.14;98725.52;1710995;84;21439;-66
2021/07/19 04:13:11;;;;;;;14.13;12.65;;;;;;;30.67;59.12;98717.66;1711125;84;20944;-65
2021/07/19 04:15:42;;;;;;;14.35;12.90;;;;;;;30.87;58.31;98727.00;1711074;83;21003;-66
2021/07/19 04:18:08;;;;;;;19.73;17.32;;;;;;;31.06;58.04;98724.76;1702980;84;21152;-65
2021/07/19 04:20:37;;;;;;;19.25;14.35;;;;;;;31.32;56.91;98731.39;1710614;83;21052;-65
2021/07/19 04:23:03;;;;;;;17.87;14.00;;;;;;;31.52;56.17;98723.22;1710917;84;20979;-65
2021/07/19 04:25:30;;;;;;;16.05;14.47;;;;;;;31.77;55.61;98728.16;1710949;83;21003;-65
2021/07/19 04:27:57;;;;;;;16.65;14.73;;;;;;;32.01;54.41;98724.34;1711010;84;21070;-65
2021/07/19 04:30:34;;;;;;;17.27;15.55;;;;;;;32.19;53.87;98729.25;1711047;83;21118;-65
2021/07/19 04:33:01;;;;;;;15.83;14.00;;;;;;;32.36;53.46;98734.13;1702875;84;20964;-65
2021/07/19 04:35:28;;;;;;;19.60;15.43;;;;;;;32.48;53.34;98731.00;1711171;83;21003;-65
2021/07/19 04:37:55;;;;;;;18.30;15.58;;;;;;;32.56;52.93;98733.94;1711105;82;21506;-66
2021/07/19 04:40:25;;;;;;;24.85;14.90;;;;;;;32.49;53.00;98732.12;1711123;83;21436;-65
2021/07/19 04:42:52;;;;;;;26.87;17.05;;;;;;;32.54;52.73;98731.46;1711048;82;21098;-65
2021/07/19 04:45:20;;;;;;;30.43;17.05;;;;;;;32.55;52.62;98729.07;1710840;84;21069;-65
2021/07/19 04:47:47;;;;;;;20.90;17.55;;;;;;;32.65;52.67;98724.50;1710938;83;21003;-65
2021/07/19 04:50:16;;;;;;;34.90;21.40;;;;;;;32.84;52.30;98721.63;1710979;83;21058;-65
2021/07/19 04:53:02;;;;;;;31.00;18.90;;;;;;;33.10;51.14;98716.97;1710798;83;21434;-65
2021/07/19 04:55:30;;;;;;;25.25;18.23;;;;;;;33.07;50.21;98718.24;1711028;83;21128;-65
2021/07/19 04:57:57;;;;;;;22.22;18.15;;;;;;;32.99;50.33;98716.37;1710756;84;21056;-66
2021/07/19 05:00:23;;;;;;;25.02;18.10;;;;;;;33.05;50.58;98715.47;1710862;83;20940;-67
2021/07/19 05:02:50;;;;;;;23.92;16.60;;;;;;;33.27;50.64;98710.45;1730468;82;21221;-66
2021/07/19 05:05:19;;;;;;;20.05;17.87;;;;;;;33.56;49.60;98701.55;1747052;81;21010;-68
2021/07/19 05:07:48;;;;;;;26.27;16.62;;;;;;;33.80;48.98;98704.61;1745913;81;21038;-67
2021/07/19 05:10:23;;;;;;;20.75;17.37;;;;;;;34.08;48.97;98699.09;1747193;81;21407;-69
2021/07/19 05:12:51;;;;;;;32.53;18.40;;;;;;;34.41;48.42;98696.64;1747173;82;21046;-65
2021/07/19 05:15:19;;;;;;;35.05;18.85;;;;;;;34.78;47.51;98696.38;1739050;82;21023;-66
2021/07/19 05:17:45;;;;;;;22.30;17.82;;;;;;;35.10;46.08;98706.23;1735734;82;21069;-67
2021/07/19 05:20:19;;;;;;;47.95;23.50;;;;;;;35.37;45.06;98708.70;1744565;82;21133;-67
2021/07/19 05:22:54;;;;;;;21.50;18.50;;;;;;;35.60;44.24;98701.50;1749794;82;21041;-67
2021/07/19 05:25:32;;;;;;;43.85;19.90;;;;;;;35.65;44.04;98702.42;1748455;82;21422;-67
2021/07/19 05:28:07;;;;;;;27.60;19.45;;;;;;;35.64;43.36;98710.25;1727219;82;21486;-67
2021/07/19 05:30:36;;;;;;;28.77;18.27;;;;;;;35.58;43.42;98703.92;1737885;82;21451;-67
2021/07/19 05:33:03;;;;;;;22.48;17.48;;;;;;;35.61;43.68;98701.27;1740207;82;21132;-68
2021/07/19 05:35:34;;;;;;;26.87;17.87;;;;;;;35.77;44.09;98697.78;1741817;82;21015;-68
2021/07/19 05:38:09;;;;;;;25.43;18.45;;;;;;;36.07;43.82;98705.59;1741877;82;20943;-67
2021/07/19 05:40:37;;;;;;;21.05;18.95;;;;;;;36.37;43.05;98701.75;1742023;82;21522;-67
2021/07/19 05:43:03;;;;;;;26.15;18.65;;;;;;;36.55;42.17;98706.35;1737043;82;21412;-67
2021/07/19 05:45:31;;;;;;;28.87;19.10;;;;;;;36.63;41.73;98713.74;1735547;82;21216;-65
2021/07/19 05:47:59;;;;;;;23.75;19.95;;;;;;;36.65;41.59;98710.25;1735711;82;21487;-65
2021/07/19 05:50:27;;;;;;;32.83;22.70;;;;;;;36.55;41.77;98711.77;1735642;82;21074;-66
2021/07/19 05:52:58;;;;;;;23.30;19.52;;;;;;;36.32;41.63;98712.50;1745222;82;21439;-66
2021/07/19 05:55:25;;;;;;;22.98;20.52;;;;;;;35.85;41.94;98708.22;1750350;82;21016;-66
2021/07/19 05:57:52;;;;;;;26.82;22.05;;;;;;;35.51;42.65;98707.86;1750379;81;21104;-66
2021/07/19 06:00:19;;;;;;;27.10;19.42;;;;;;;35.17;43.57;98709.63;1725693;82;21551;-66
2021/07/19 06:02:45;;;;;;;25.68;20.35;;;;;;;35.06;43.31;98720.76;1748164;81;20949;-66
2021/07/19 06:05:13;;;;;;;36.00;20.77;;;;;;;34.96;43.49;98720.56;1746884;81;21025;-66
2021/07/19 06:07:39;;;;;;;25.25;20.05;;;;;;;34.95;43.68;98726.20;1751667;80;21052;-65
2021/07/19 06:10:09;;;;;;;22.73;18.48;;;;;;;34.99;43.36;98721.94;1747178;82;21479;-68
2021/07/19 06:12:38;;;;;;;25.45;23.18;;;;;;;35.12;43.07;98727.09;1743788;81;21089;-67
2021/07/19 06:15:08;;;;;;;32.58;18.87;;;;;;;35.23;42.01;98722.16;1747006;82;20990;-66
2021/07/19 06:17:37;;;;;;;20.08;17.67;;;;;;;35.31;42.79;98723.70;1746495;82;21039;-65
2021/07/19 06:20:13;;;;;;;20.90;17.52;;;;;;;35.41;42.61;98732.82;1745557;82;21014;-65
2021/07/19 06:22:40;;;;;;;49.23;22.27;;;;;;;35.34;42.74;98736.75;1747569;82;21327;-66
2021/07/19 06:25:13;;;;;;;27.55;17.82;;;;;;;35.29;42.64;98735.29;1741574;80;21053;-66
2021/07/19 06:27:40;;;;;;;24.65;17.55;;;;;;;35.14;43.07;98733.09;1744313;82;21490;-66
2021/07/19 06:30:09;;;;;;;32.20;19.12;;;;;;;34.98;43.36;98736.52;1747531;81;21038;-66
2021/07/19 06:32:36;;;;;;;26.23;19.52;;;;;;;34.82;44.51;98738.90;1746295;82;21579;-67
2021/07/19 06:35:05;;;;;;;21.17;17.98;;;;;;;34.68;44.92;98738.02;1747888;81;21091;-67
2021/07/19 06:37:32;;;;;;;18.48;16.73;;;;;;;34.49;45.07;98734.63;1746331;82;20929;-65
2021/07/19 06:39:58;;;;;;;21.52;16.37;;;;;;;34.37;44.55;98728.42;1747856;82;21009;-65
2021/07/19 06:42:24;;;;;;;21.60;17.07;;;;;;;34.26;44.39;98731.36;1747674;82;21010;-65
2021/07/19 06:44:54;;;;;;;22.50;18.05;;;;;;;34.07;44.98;98733.34;1756846;81;21156;-65
2021/07/19 06:47:20;;;;;;;21.80;15.58;;;;;;;33.93;45.30;98730.58;1739354;81;21159;-66
2021/07/19 06:49:48;;;;;;;17.15;15.38;;;;;;;33.74;45.99;98721.70;1741047;81;21494;-66
2021/07/19 06:52:15;;;;;;;19.52;15.45;;;;;;;33.53;45.43;98721.70;1747685;81;20959;-65
2021/07/19 06:54:41;;;;;;;16.77;14.98;;;;;;;33.34;45.85;98728.72;1747557;82;21455;-66
2021/07/19 06:57:08;;;;;;;19.73;14.90;;;;;;;33.20;45.69;98722.63;1747440;81;21497;-64
2021/07/19 06:59:36;;;;;;;18.15;15.48;;;;;;;33.08;45.84;98729.31;1720915;83;21587;-65
2021/07/19 07:02:03;;;;;;;17.17;14.83;;;;;;;32.94;46.64;98725.15;1721528;83;21474;-66
2021/07/19 07:04:30;;;;;;;19.65;16.42;;;;;;;32.85;46.71;98723.27;1721475;83;21526;-67
2021/07/19 07:06:58;;;;;;;24.00;15.32;;;;;;;32.73;46.96;98729.61;1721610;83;21545;-68
2021/07/19 07:09:25;;;;;;;18.70;16.70;;;;;;;32.60;47.82;98732.42;1721835;83;20977;-66
2021/07/19 07:11:51;;;;;;;18.30;16.40;;;;;;;32.53;48.01;98738.72;1723758;82;21184;-66
2021/07/19 07:14:18;;;;;;;18.12;15.75;;;;;;;32.54;48.26;98740.88;1720147;83;21079;-67
2021/07/19 07:16:44;;;;;;;17.65;16.00;;;;;;;32.60;48.40;98743.19;1715392;82;21014;-66
2021/07/19 07:19:10;;;;;;;17.80;16.10;;;;;;;32.73;48.51;98748.45;1734910;82;21033;-67
2021/07/19 07:21:38;;;;;;;16.93;14.55;;;;;;;32.90;48.04;98750.06;1721651;83;21028;-67
2021/07/19 07:24:05;;;;;;;18.55;14.87;;;;;;;32.95;46.89;98745.66;1732856;82;22309;-66
2021/07/19 07:26:32;;;;;;;21.23;15.83;;;;;;;32.99;47.03;98744.13;1745967;82;21645;-67
2021/07/19 07:28:58;;;;;;;17.20;15.45;;;;;;;33.02;47.36;98753.11;1747191;82;21546;-67
2021/07/19 07:31:27;;;;;;;26.25;15.32;;;;;;;32.99;47.58;98760.29;1746308;82;21080;-67
2021/07/19 07:33:57;;;;;;;27.98;16.40;;;;;;;32.75;47.83;98762.03;1744284;82;20967;-65
2021/07/19 07:36:26;;;;;;;29.48;16.80;;;;;;;32.31;49.43;98784.57;1717925;83;21417;-63
2021/07/19 07:38:53;;;;;;;43.50;20.20;;;;;;;31.61;51.25;98778.36;1728252;82;21006;-67
2021/07/19 07:41:20;;;;;;;32.75;19.85;;;;;;;30.95;52.87;98779.14;1747817;82;21444;-66
2021/07/19 07:43:46;;;;;;;36.88;20.70;;;;;;;30.33;54.67;98781.78;1746592;82;21095;-66
2021/07/19 07:46:13;;;;;;;27.82;19.90;;;;;;;29.88;56.38;98790.05;1746625;82;21032;-67
2021/07/19 07:48:39;;;;;;;31.73;21.12;;;;;;;29.53;57.59;98801.42;1746837;82;21427;-67
2021/07/19 07:51:07;;;;;;;32.88;21.33;;;;;;;29.37;58.53;98805.25;1747790;82;21504;-67
2021/07/19 07:53:34;;;;;;;31.40;23.47;;;;;;;29.28;58.74;98797.88;1747802;80;21060;-66
2021/07/19 07:56:00;;;;;;;28.10;20.92;;;;;;;29.30;59.40;98797.69;1748091;82;21423;-66
2021/07/19 07:58:29;;;;;;;28.73;20.25;;;;;;;29.42;59.34;98808.98;1747954;82;21009;-67
2021/07/19 08:00:55;;;;;;;23.45;19.35;;;;;;;29.58;59.31;98794.41;1747495;82;21238;-67
2021/07/19 08:03:22;;;;;;;23.05;20.30;;;;;;;29.70;58.88;98801.36;1746929;81;20989;-67
2021/07/19 08:05:48;;;;;;;24.10;18.77;;;;;;;29.69;59.25;98797.85;1745731;82;21080;-66
2021/07/19 08:08:15;;;;;;;16.30;14.63;;;;;;;29.74;58.88;98787.88;1745751;82;20970;-67
2021/07/19 08:10:41;;;;;;;13.38;11.75;;;;;;;29.77;56.84;98776.75;1745490;82;21048;-67
2021/07/19 08:13:07;;;;;;;11.55;10.32;;;;;;;29.85;53.93;98773.03;1745709;82;21172;-66
2021/07/19 08:15:36;;;;;;;11.55;9.08;;;;;;;29.88;52.42;98778.82;1745652;82;21060;-66
2021/07/19 08:18:04;;;;;;;7.42;6.33;;;;;;;29.87;51.16;98772.31;1727008;81;20967;-67
2021/07/19 08:20:31;;;;;;;7.33;6.45;;;;;;;29.89;49.02;98771.09;1716222;83;20947;-67
2021/07/19 08:22:57;;;;;;;8.48;5.85;;;;;;;29.87;47.62;98770.98;1715419;83;21104;-66
2021/07/19 08:25:23;;;;;;;8.73;6.45;;;;;;;29.74;46.95;98773.95;1709469;84;21126;-66
2021/07/19 08:27:50;;;;;;;9.05;8.15;;;;;;;29.57;47.85;98777.22;1709719;84;20978;-67
2021/07/19 08:30:16;;;;;;;17.30;11.20;;;;;;;29.46;50.12;98768.72;1709478;84;21077;-68
2021/07/19 08:32:43;;;;;;;13.70;12.33;;;;;;;29.42;53.06;98778.18;1709353;84;20979;-67
2021/07/19 08:35:11;;;;;;;14.45;12.98;;;;;;;29.25;53.84;98761.30;1709361;84;21035;-66
2021/07/19 08:37:44;;;;;;;14.33;12.60;;;;;;;28.92;55.10;98749.94;1711478;83;21867;-66
2021/07/19 08:40:12;;;;;;;17.75;12.90;;;;;;;28.75;56.29;98756.09;1709454;83;21431;-67
2021/07/19 08:42:39;;;;;;;21.52;13.18;;;;;;;28.77;55.89;98763.92;1709428;83;21010;-66
2021/07/19 08:45:10;;;;;;;13.72;12.40;;;;;;;28.87;56.34;98759.58;1716238;83;21054;-66
2021/07/19 08:47:43;;;;;;;16.25;12.60;;;;;;;28.99;56.06;98749.44;1722042;82;21096;-66
2021/07/19 08:50:11;;;;;;;14.53;13.08;;;;;;;29.10;56.25;98764.95;1734804;82;21124;-69
2021/07/19 08:52:38;;;;;;;16.42;13.50;;;;;;;29.10;56.63;98762.78;1735310;82;21001;-66
2021/07/19 08:55:07;;;;;;;15.88;13.93;;;;;;;29.16;56.73;98764.67;1735276;82;21455;-66
2021/07/19 08:57:34;;;;;;;16.95;15.20;;;;;;;29.13;56.66;98772.59;1735521;82;21502;-66
2021/07/19 09:00:03;;;;;;;17.57;13.93;;;;;;;29.00;57.48;98764.98;1727181;82;20964;-66
2021/07/19 09:02:30;;;;;;;16.42;14.30;;;;;;;28.94;58.83;98761.78;1715020;83;21105;-67
2021/07/19 09:04:57;;;;;;;17.77;14.45;;;;;;;28.93;58.26;98771.66;1729502;82;21007;-66
2021/07/19 09:07:24;;;;;;;15.80;14.03;;;;;;;28.89;58.16;98773.59;1730314;83;21019;-67
2021/07/19 09:09:51;;;;;;;17.07;13.65;;;;;;;28.80;58.60;98792.47;1731253;83;21039;-67
2021/07/19 09:12:17;;;;;;;17.40;13.03;;;;;;;28.75;58.63;98794.90;1731248;83;21010;-67
2021/07/19 09:14:47;;;;;;;16.12;14.53;;;;;;;28.74;59.34;98794.58;1682835;83;21124;-67
2021/07/19 09:17:27;;;;;;;14.43;11.70;;;;;;;28.77;60.25;98816.12;1730924;82;21004;-66
2021/07/19 09:19:55;;;;;;;17.77;11.50;;;;;;;28.83;60.03;98817.19;1731603;83;20967;-66
2021/07/19 09:22:31;;;;;;;16.32;11.75;;;;;;;28.78;59.25;98816.41;1731204;83;21011;-67
2021/07/19 09:25:16;;;;;;;15.13;11.57;;;;;;;28.70;58.95;98816.57;1731262;82;21023;-66
2021/07/19 09:28:11;;;;;;;17.62;11.85;;;;;;;28.68;59.35;98823.96;1731341;82;21712;-66
2021/07/19 09:30:44;;;;;;;13.80;10.55;;;;;;;28.65;60.07;98809.63;1731446;82;21043;-65
2021/07/19 09:33:17;;;;;;;10.55;7.30;;;;;;;28.72;59.36;98810.52;1731345;83;20967;-67
2021/07/19 09:35:48;;;;;;;7.30;6.60;;;;;;;28.62;55.51;98817.53;1731520;83;21038;-66
2021/07/19 09:38:16;;;;;;;7.55;6.55;;;;;;;28.51;55.64;98806.55;1718979;83;21069;-65
2021/07/19 09:40:50;;;;;;;7.45;6.50;;;;;;;28.54;55.32;98804.32;1718468;83;21791;-67
2021/07/19 09:43:23;;;;;;;10.58;7.53;;;;;;;28.54;55.17;98808.84;1719658;83;21092;-67
2021/07/19 09:45:58;;;;;;;10.28;7.45;;;;;;;28.45;55.06;98794.27;1719577;83;21077;-67
2021/07/19 09:48:25;;;;;;;9.23;7.25;;;;;;;28.41;55.24;98793.50;1715347;83;20947;-66
2021/07/19 09:50:53;;;;;;;9.38;7.95;;;;;;;28.43;55.35;98792.80;1720080;83;20974;-66
2021/07/19 09:53:34;;;;;;;10.10;7.65;;;;;;;28.44;54.95;98804.64;1720031;83;23268;-66
2021/07/19 09:56:13;;;;;;;15.05;8.03;;;;;;;28.45;55.07;98804.13;1720058;83;20974;-67
2021/07/19 09:58:50;;;;;;;10.53;7.78;;;;;;;28.43;54.03;98805.66;1720054;83;21277;-66
2021/07/19 10:01:30;;;;;;;10.45;7.97;;;;;;;28.36;54.92;98819.52;1717337;83;21041;-66
2021/07/19 10:04:25;;;;;;;13.38;8.45;;;;;;;28.30;55.89;98800.72;1732472;82;21517;-67
2021/07/19 10:06:52;;;;;;;12.37;9.30;;;;;;;28.31;55.93;98813.08;1685888;85;21527;-66
2021/07/19 10:09:20;;;;;;;13.60;9.45;;;;;;;28.35;56.53;98813.84;1686271;85;21010;-65
2021/07/19 10:11:52;;;;;;;13.65;9.75;;;;;;;28.38;56.76;98813.43;1686241;85;21073;-68
2021/07/19 10:14:34;;;;;;;13.67;9.10;;;;;;;28.46;56.17;98806.61;1686576;85;21030;-66
2021/07/19 10:17:03;;;;;;;10.73;8.87;;;;;;;28.59;56.13;98814.41;1686806;85;21039;-66
2021/07/19 10:19:30;;;;;;;13.15;10.08;;;;;;;28.65;55.44;98812.30;1686553;85;21152;-67
2021/07/19 10:21:57;;;;;;;12.78;9.65;;;;;;;28.66;55.76;98813.96;1686476;83;21499;-66
2021/07/19 10:24:24;;;;;;;14.05;9.58;;;;;;;28.66;55.93;98813.96;1689047;83;21018;-67
2021/07/19 10:26:50;;;;;;;10.00;8.98;;;;;;;28.60;55.84;98805.37;1681953;85;21434;-66
2021/07/19 10:29:17;;;;;;;12.50;10.32;;;;;;;28.54;56.03;98807.50;1682521;85;21106;-67
2021/07/19 10:31:46;;;;;;;12.78;9.15;;;;;;;28.52;56.76;98798.84;1719931;82;20988;-67
2021/07/19 10:34:16;;;;;;;9.25;8.35;;;;;;;28.60;56.00;98791.98;1738806;82;20963;-66
2021/07/19 10:36:53;;;;;;;12.67;9.00;;;;;;;28.65;54.67;98779.69;1733994;82;21534;-66
2021/07/19 10:39:25;;;;;;;13.95;10.15;;;;;;;28.66;56.42;98767.14;1709634;82;21062;-67
2021/07/19 10:42:10;;;;;;;12.23;8.93;;;;;;;28.64;56.42;98782.55;1731884;82;21195;-67
2021/07/19 10:44:39;;;;;;;12.33;9.33;;;;;;;28.58;56.13;98781.48;1732820;82;21975;-67
2021/07/19 10:47:19;;;;;;;10.03;9.10;;;;;;;28.53;57.14;98783.11;1732906;82;21037;-65
2021/07/19 10:50:01;;;;;;;15.20;10.23;;;;;;;28.57;56.89;98785.72;1733266;82;20962;-66
2021/07/19 10:52:38;;;;;;;14.35;10.60;;;;;;;28.58;56.55;98777.47;1732775;82;21069;-67
2021/07/19 10:55:08;;;;;;;15.95;9.85;;;;;;;28.61;56.03;98774.41;1733180;82;21022;-65
2021/07/19 10:57:38;;;;;;;10.25;9.15;;;;;;;28.64;56.18;98772.68;1732420;82;21083;-66
2021/07/19 11:00:11;;;;;;;9.78;8.75;;;;;;;28.64;56.69;98776.70;1733418;82;21015;-67
2021/07/19 11:02:37;;;;;;;12.95;9.58;;;;;;;28.68;56.99;98771.27;1733162;82;21023;-69
2021/07/19 11:05:08;;;;;;;12.20;9.75;;;;;;;28.83;57.37;98760.47;1730730;81;21463;-67
2021/07/19 11:07:43;;;;;;;11.28;10.05;;;;;;;28.94;56.23;98759.94;1730157;82;20999;-67
2021/07/19 11:10:19;;;;;;;11.95;9.30;;;;;;;29.00;56.63;98760.45;1730124;83;21470;-68
2021/07/19 11:12:50;;;;;;;9.93;9.00;;;;;;;29.02;56.26;98745.53;1729868;82;21079;-66
2021/07/19 11:15:24;;;;;;;12.53;9.55;;;;;;;29.03;56.71;98750.70;1729971;83;21023;-67
2021/07/19 11:17:52;;;;;;;17.05;11.10;;;;;;;29.02;57.48;98740.18;1730165;83;20963;-66
2021/07/19 11:20:19;;;;;;;12.35;9.43;;;;;;;29.11;57.92;98747.03;1732755;81;21478;-65
2021/07/19 11:22:46;;;;;;;12.13;10.30;;;;;;;29.19;57.02;98740.14;1665095;84;21231;-65
2021/07/19 11:25:15;;;;;;;11.73;9.73;;;;;;;29.25;56.74;98739.36;1678894;85;21076;-66
2021/07/19 11:27:45;;;;;;;13.53;11.57;;;;;;;29.25;56.42;98725.96;1731312;82;21051;-67
2021/07/19 11:30:22;;;;;;;13.05;10.53;;;;;;;29.21;56.57;98727.90;1731949;82;21018;-66